createdAt,value
2018-09-13T00:00:12.459Z,15.40
2018-09-13T00:01:16.701Z,25.88
2018-09-13T00:02:20.923Z,20.02
2018-09-13T00:03:25.307Z,20.12
2018-09-13T00:04:29.310Z,21.95
2018-09-13T00:05:33.396Z,20.50
2018-09-13T00:06:37.421Z,22.62
2018-09-13T00:07:41.591Z,18.40
2018-09-13T00:08:47.461Z,17.95
2018-09-13T00:09:51.563Z,19.20
2018-09-13T00:10:55.572Z,21.45
2018-09-13T00:11:59.920Z,19.10
2018-09-13T00:13:04.117Z,18.48
2018-09-13T00:14:08.422Z,20.65
2018-09-13T00:15:12.536Z,22.40
2018-09-13T00:16:16.801Z,17.30
2018-09-13T00:17:21.964Z,22.67
2018-09-13T00:18:26.191Z,21.50
2018-09-13T00:19:30.338Z,20.70
2018-09-13T00:20:34.851Z,23.20
2018-09-13T00:21:39.305Z,25.25
2018-09-13T00:22:43.383Z,21.73
2018-09-13T00:23:47.493Z,19.65
2018-09-13T00:24:51.755Z,19.57
2018-09-13T00:25:55.930Z,22.07
2018-09-13T00:26:59.916Z,19.05
2018-09-13T00:28:04.405Z,22.22
2018-09-13T00:29:11.855Z,23.77
2018-09-13T00:30:15.943Z,19.73
2018-09-13T00:31:21.470Z,20.75
2018-09-13T00:32:25.480Z,21.27
2018-09-13T00:33:29.468Z,20.10
2018-09-13T00:34:34.514Z,20.77
2018-09-13T00:35:38.477Z,22.25
2018-09-13T00:36:42.933Z,19.85
2018-09-13T00:37:47.109Z,20.92
2018-09-13T00:38:51.172Z,24.43
2018-09-13T00:39:55.461Z,29.12
2018-09-13T00:40:59.484Z,23.47
2018-09-13T00:42:05.316Z,19.30
2018-09-13T00:43:10.003Z,22.30
2018-09-13T00:44:15.877Z,22.58
2018-09-13T00:45:20.182Z,21.35
2018-09-13T00:46:25.822Z,23.50
2018-09-13T00:47:31.221Z,21.37
2018-09-13T00:48:35.603Z,21.73
2018-09-13T00:49:40.125Z,23.55
2018-09-13T00:50:44.436Z,18.75
2018-09-13T00:51:48.486Z,21.33
2018-09-13T00:52:52.666Z,24.00
2018-09-13T00:53:57.738Z,23.10
2018-09-13T00:55:05.550Z,20.43
2018-09-13T00:56:10.204Z,17.87
2018-09-13T00:57:14.453Z,22.65
2018-09-13T00:58:18.476Z,18.70
2018-09-13T00:59:22.650Z,15.98
2018-09-13T01:00:26.673Z,20.92
2018-09-13T01:01:31.529Z,16.17
2018-09-13T01:02:35.577Z,20.35
2018-09-13T01:03:39.566Z,21.60
2018-09-13T01:04:43.582Z,20.92
2018-09-13T01:05:48.300Z,20.60
2018-09-13T01:06:52.495Z,16.42
2018-09-13T01:07:57.312Z,15.85
2018-09-13T01:09:02.227Z,19.98
2018-09-13T01:10:08.580Z,25.35
2018-09-13T01:11:12.756Z,20.05
2018-09-13T01:12:16.779Z,20.32
2018-09-13T01:13:21.304Z,20.68
2018-09-13T01:14:26.235Z,18.32
2018-09-13T01:15:31.605Z,17.80
2018-09-13T01:16:36.568Z,18.62
2018-09-13T01:17:42.214Z,20.30
2018-09-13T01:18:46.359Z,17.10
2018-09-13T01:19:50.363Z,18.05
2018-09-13T01:20:54.538Z,17.32
2018-09-13T01:21:58.690Z,19.42
2018-09-13T01:23:02.869Z,22.40
2018-09-13T01:24:07.110Z,19.77
2018-09-13T01:25:11.113Z,18.35
2018-09-13T01:26:16.484Z,19.10
2018-09-13T01:27:22.194Z,20.17
2018-09-13T01:28:26.156Z,21.90
2018-09-13T01:29:30.487Z,32.15
2018-09-13T01:30:34.702Z,23.38
2018-09-13T01:31:38.829Z,27.20
2018-09-13T01:32:42.922Z,22.05
2018-09-13T01:33:48.170Z,29.00
2018-09-13T01:34:53.180Z,23.55
2018-09-13T01:35:57.204Z,23.40
2018-09-13T01:37:01.162Z,25.72
2018-09-13T01:38:05.316Z,30.30
2018-09-13T01:39:10.357Z,27.85
2018-09-13T01:40:14.410Z,26.85
2018-09-13T01:41:18.459Z,29.60
2018-09-13T01:42:23.009Z,26.23
2018-09-13T01:43:27.053Z,27.73
2018-09-13T01:44:31.116Z,26.02
2018-09-13T01:45:35.148Z,34.10
2018-09-13T01:46:39.130Z,23.83
2018-09-13T01:47:43.396Z,33.28
2018-09-13T01:48:47.934Z,32.93
2018-09-13T01:49:52.026Z,27.30
2018-09-13T01:50:56.204Z,34.60
2018-09-13T01:52:00.431Z,29.80
2018-09-13T01:53:04.553Z,30.88
2018-09-13T01:54:08.650Z,33.45
2018-09-13T01:55:12.717Z,31.35
2018-09-13T01:56:16.745Z,32.25
2018-09-13T01:57:20.945Z,37.93
2018-09-13T01:58:25.368Z,33.92
2018-09-13T01:59:29.520Z,33.10
2018-09-13T02:00:33.713Z,35.78
2018-09-13T02:01:37.753Z,32.45
2018-09-13T02:02:41.795Z,35.28
2018-09-13T02:03:45.916Z,34.98
2018-09-13T02:04:50.192Z,33.67
2018-09-13T02:05:54.492Z,30.72
2018-09-13T02:06:58.687Z,28.75
2018-09-13T02:08:02.964Z,29.82
2018-09-13T02:09:09.014Z,27.90
2018-09-13T02:10:13.454Z,28.87
2018-09-13T02:11:18.380Z,29.85
2018-09-13T02:12:22.425Z,31.33
2018-09-13T02:13:26.547Z,24.07
2018-09-13T02:14:31.189Z,33.15
2018-09-13T02:15:38.582Z,29.92
2018-09-13T02:16:44.622Z,29.37
2018-09-13T02:17:48.620Z,28.35
2018-09-13T02:18:52.828Z,27.13
2018-09-13T02:19:56.901Z,26.15
2018-09-13T02:21:00.905Z,25.70
2018-09-13T02:22:05.943Z,28.50
2018-09-13T02:23:10.261Z,29.87
2018-09-13T02:24:14.258Z,24.85
2018-09-13T02:25:18.278Z,33.48
2018-09-13T02:26:22.264Z,24.92
2018-09-13T02:27:26.737Z,24.63
2018-09-13T02:28:31.305Z,28.73
2018-09-13T02:29:35.310Z,24.12
2018-09-13T02:30:39.912Z,27.32
2018-09-13T02:31:43.895Z,27.42
2018-09-13T02:32:47.932Z,24.25
2018-09-13T02:33:51.917Z,24.05
2018-09-13T02:34:56.083Z,25.65
2018-09-13T02:36:00.416Z,25.77
2018-09-13T02:37:04.455Z,24.75
2018-09-13T02:38:08.529Z,25.75
2018-09-13T02:39:12.770Z,24.43
2018-09-13T02:40:16.989Z,26.15
2018-09-13T02:41:21.313Z,25.20
2018-09-13T02:42:25.716Z,27.25
2018-09-13T02:43:29.676Z,29.95
2018-09-13T02:44:33.771Z,27.00
2018-09-13T02:45:38.114Z,24.07
2018-09-13T02:46:42.409Z,24.47
2018-09-13T02:47:46.867Z,27.52
2018-09-13T02:48:51.167Z,27.75
2018-09-13T02:49:55.252Z,28.60
2018-09-13T02:50:59.483Z,32.00
2018-09-13T02:52:03.848Z,25.00
2018-09-13T02:53:09.170Z,28.57
2018-09-13T02:54:13.284Z,26.05
2018-09-13T02:55:17.529Z,30.08
2018-09-13T02:56:21.810Z,35.63
2018-09-13T02:57:25.812Z,30.17
2018-09-13T02:58:29.855Z,31.05
2018-09-13T02:59:33.835Z,32.48
2018-09-13T03:00:37.827Z,29.40
2018-09-13T03:01:41.886Z,28.80
2018-09-13T03:02:45.826Z,31.35
2018-09-13T03:03:50.197Z,30.75
2018-09-13T03:04:54.332Z,28.47
2018-09-13T03:05:58.340Z,31.95
2018-09-13T03:07:02.335Z,28.80
2018-09-13T03:08:06.641Z,31.70
2018-09-13T03:09:12.561Z,28.00
2018-09-13T03:10:16.512Z,32.63
2018-09-13T03:11:20.521Z,29.77
2018-09-13T03:12:24.548Z,26.57
2018-09-13T03:13:28.613Z,37.95
2018-09-13T03:14:32.921Z,32.63
2018-09-13T03:15:37.010Z,31.42
2018-09-13T03:16:41.280Z,31.50
2018-09-13T03:17:45.325Z,29.92
2018-09-13T03:18:49.312Z,34.13
2018-09-13T03:19:53.313Z,28.45
2018-09-13T03:20:57.268Z,30.65
2018-09-13T03:22:01.255Z,38.38
2018-09-13T03:23:05.281Z,30.55
2018-09-13T03:24:09.396Z,35.60
2018-09-13T03:25:13.428Z,34.30
2018-09-13T03:26:17.413Z,34.60
2018-09-13T03:27:22.441Z,38.88
2018-09-13T03:28:26.513Z,28.42
2018-09-13T03:29:30.968Z,42.80
2018-09-13T03:30:35.277Z,35.15
2018-09-13T03:31:39.697Z,31.48
2018-09-13T03:32:43.729Z,32.33
2018-09-13T03:33:47.797Z,38.63
2018-09-13T03:35:39.458Z,39.18
2018-09-13T03:36:45.125Z,32.35
2018-09-13T03:37:50.099Z,34.45
2018-09-13T03:38:54.424Z,36.23
2018-09-13T03:39:58.632Z,35.03
2018-09-13T03:41:02.624Z,38.28
2018-09-13T03:42:06.825Z,37.73
2018-09-13T03:43:10.991Z,34.20
2018-09-13T03:44:14.993Z,34.38
2018-09-13T03:45:19.321Z,36.73
2018-09-13T03:46:23.522Z,36.93
2018-09-13T03:47:28.031Z,39.90
2018-09-13T03:48:32.564Z,34.48
2018-09-13T03:49:36.566Z,35.70
2018-09-13T03:50:42.824Z,38.55
2018-09-13T03:51:47.178Z,37.38
2018-09-13T03:52:51.384Z,35.88
2018-09-13T03:53:55.343Z,35.98
2018-09-13T03:54:59.729Z,33.48
2018-09-13T03:56:03.793Z,37.35
2018-09-13T03:57:07.874Z,34.03
2018-09-13T03:58:11.958Z,39.85
2018-09-13T03:59:16.141Z,35.60
2018-09-13T04:00:20.392Z,35.55
2018-09-13T04:01:24.737Z,35.25
2018-09-13T04:02:29.242Z,35.68
2018-09-13T04:03:34.139Z,39.45
2018-09-13T04:04:38.357Z,36.03
2018-09-13T04:05:42.525Z,35.65
2018-09-13T04:06:46.573Z,35.13
2018-09-13T04:07:50.677Z,37.33
2018-09-13T04:08:54.860Z,31.85
2018-09-13T04:09:58.882Z,37.05
2018-09-13T04:11:03.013Z,42.25
2018-09-13T04:12:07.093Z,34.30
2018-09-13T04:13:11.507Z,35.70
2018-09-13T04:14:15.658Z,39.00
2018-09-13T04:15:20.043Z,36.58
2018-09-13T04:16:24.094Z,33.45
2018-09-13T04:17:31.180Z,31.87
2018-09-13T04:18:35.396Z,35.95
2018-09-13T04:19:45.258Z,34.58
2018-09-13T04:20:49.639Z,39.15
2018-09-13T04:21:54.641Z,35.13
2018-09-13T04:22:59.758Z,39.83
2018-09-13T04:24:05.799Z,36.17
2018-09-13T04:25:13.353Z,39.45
2018-09-13T09:55:24.671Z,18.93
2018-09-13T09:56:28.999Z,18.62
2018-09-13T09:57:33.230Z,15.38
2018-09-13T09:58:37.608Z,17.67
2018-09-13T09:59:42.428Z,19.20
2018-09-13T10:00:52.545Z,18.12
2018-09-13T10:02:04.713Z,15.75
2018-09-13T10:03:10.374Z,20.92
2018-09-13T10:05:56.369Z,16.57
2018-09-13T10:07:00.628Z,17.37
2018-09-13T10:08:05.084Z,19.48
2018-09-13T10:09:10.377Z,15.90
2018-09-13T10:10:14.595Z,21.48
2018-09-13T10:11:20.719Z,16.10
2018-09-13T10:12:25.976Z,16.45
2018-09-13T10:13:30.251Z,20.25
2018-09-13T10:14:34.652Z,16.23
2018-09-13T10:15:44.181Z,16.25
2018-09-13T10:16:56.081Z,13.65
2018-09-13T10:18:06.025Z,14.83
2018-09-13T10:19:16.048Z,13.60
2018-09-13T10:20:25.682Z,19.00
2018-09-13T10:21:35.083Z,11.78
2018-09-13T10:22:44.321Z,14.23
2018-09-13T10:23:54.518Z,13.18
2018-09-13T10:25:10.830Z,13.85
2018-09-13T10:26:20.965Z,17.17
2018-09-13T10:27:36.273Z,14.93
2018-09-13T10:28:45.704Z,16.73
2018-09-13T10:29:55.375Z,14.85
2018-09-13T10:31:04.708Z,18.27
2018-09-13T10:32:14.142Z,16.23
2018-09-13T10:33:23.605Z,16.02
2018-09-13T10:34:33.980Z,16.50
2018-09-13T10:35:44.031Z,18.35
2018-09-13T10:37:00.666Z,17.77
2018-09-13T10:38:11.058Z,17.42
2018-09-13T10:39:20.359Z,15.78
2018-09-13T10:44:44.877Z,15.83
2018-09-13T10:45:54.823Z,16.52
2018-09-13T10:47:04.453Z,17.42
2018-09-13T10:48:14.274Z,14.53
2018-09-13T10:49:46.598Z,15.70
2018-09-13T10:50:56.016Z,16.37
2018-09-13T10:52:04.568Z,14.43
2018-09-13T10:53:16.648Z,14.73
2018-09-13T10:54:29.583Z,23.02
2018-09-13T10:55:35.662Z,14.05
2018-09-13T10:56:40.712Z,13.13
2018-09-13T10:57:45.511Z,16.20
2018-09-13T10:58:50.344Z,15.18
2018-09-13T10:59:55.714Z,13.75
2018-09-13T11:01:00.417Z,13.90
2018-09-13T11:02:05.305Z,15.40
2018-09-13T11:03:09.717Z,16.80
2018-09-13T11:04:14.228Z,15.15
2018-09-13T11:05:18.442Z,15.85
2018-09-13T11:06:22.967Z,14.43
2018-09-13T11:07:27.660Z,18.05
2018-09-13T11:08:32.154Z,13.75
2018-09-13T11:09:36.520Z,15.03
2018-09-13T11:10:44.692Z,14.30
2018-09-13T11:11:49.414Z,16.97
2018-09-13T11:12:56.432Z,18.32
2018-09-13T11:14:08.818Z,22.45
2018-09-13T11:15:18.249Z,20.43
2018-09-13T11:16:22.717Z,22.02
2018-09-13T11:17:27.510Z,20.12
2018-09-13T11:18:31.881Z,20.17
2018-09-13T11:19:36.141Z,21.12
2018-09-13T11:20:41.147Z,23.95
2018-09-13T11:21:45.749Z,19.87
2018-09-13T11:22:54.537Z,23.02
2018-09-13T11:23:58.841Z,19.85
2018-09-13T11:25:03.141Z,21.25
2018-09-13T11:26:07.395Z,25.02
2018-09-13T11:27:12.915Z,22.67
2018-09-13T11:28:17.360Z,21.57
2018-09-13T11:29:22.430Z,19.60
2018-09-13T11:30:26.949Z,22.15
2018-09-13T11:31:31.722Z,23.05
2018-09-13T11:32:36.387Z,21.75
2018-09-13T11:33:41.031Z,22.80
2018-09-13T11:34:45.697Z,23.80
2018-09-13T11:35:50.048Z,21.37
2018-09-13T11:36:54.200Z,22.30
2018-09-13T11:37:58.600Z,22.00
2018-09-13T11:39:02.828Z,23.05
2018-09-13T11:40:07.268Z,22.15
2018-09-13T11:41:13.438Z,24.18
2018-09-13T11:42:18.162Z,23.25
2018-09-13T11:43:22.390Z,21.70
2018-09-13T11:44:26.636Z,21.70
2018-09-13T11:45:30.881Z,19.92
2018-09-13T11:46:35.575Z,19.67
2018-09-13T11:47:41.597Z,21.00
2018-09-13T11:48:45.879Z,18.62
2018-09-13T11:49:50.860Z,19.85
2018-09-13T11:50:55.638Z,23.47
2018-09-13T11:52:01.758Z,20.05
2018-09-13T11:53:06.407Z,18.42
2018-09-13T11:54:10.856Z,19.70
2018-09-13T11:56:17.688Z,18.55
2018-09-13T11:57:22.511Z,17.35
2018-09-13T11:58:26.945Z,20.77
2018-09-13T11:59:32.047Z,21.33
2018-09-13T12:00:36.461Z,18.67
2018-09-13T12:01:41.393Z,18.65
2018-09-13T12:02:46.380Z,21.20
2018-09-13T12:03:52.689Z,22.32
2018-09-13T12:04:57.367Z,18.32
2018-09-13T12:06:01.544Z,25.77
2018-09-13T12:07:05.749Z,25.25
2018-09-13T12:08:10.940Z,21.02
2018-09-13T12:09:15.885Z,22.95
2018-09-13T12:10:20.163Z,21.42
2018-09-13T12:11:24.619Z,23.60
2018-09-13T12:12:29.222Z,20.02
2018-09-13T12:13:33.524Z,23.32
2018-09-13T12:14:39.628Z,24.80
2018-09-13T12:15:44.150Z,23.98
2018-09-13T12:16:49.613Z,23.73
2018-09-13T12:17:53.842Z,23.77
2018-09-13T12:18:58.200Z,22.42
2018-09-13T12:20:02.846Z,21.45
2018-09-13T12:21:07.137Z,24.02
2018-09-13T12:22:11.532Z,30.40
2018-09-13T12:23:16.051Z,24.27
2018-09-13T12:24:21.517Z,24.82
2018-09-13T12:25:25.720Z,27.20
2018-09-13T12:26:29.991Z,25.70
2018-09-13T12:27:34.829Z,25.30
2018-09-13T12:28:39.095Z,28.75
2018-09-13T12:29:43.470Z,26.50
2018-09-13T12:30:47.799Z,28.52
2018-09-13T12:31:52.106Z,28.20
2018-09-13T12:32:57.608Z,27.65
2018-09-13T12:34:01.870Z,26.30
2018-09-13T12:35:06.544Z,24.72
2018-09-13T12:36:10.778Z,29.70
2018-09-13T12:37:15.085Z,31.17
2018-09-13T12:38:19.251Z,24.07
2018-09-13T12:39:23.695Z,27.67
2018-09-13T12:40:28.230Z,32.38
2018-09-13T12:41:32.872Z,28.47
2018-09-13T12:42:37.088Z,26.15
2018-09-13T12:43:41.472Z,24.98
2018-09-13T12:44:45.716Z,25.65
2018-09-13T12:45:50.069Z,28.27
2018-09-13T12:46:54.398Z,27.10
2018-09-13T12:47:58.539Z,31.00
2018-09-13T12:49:02.848Z,24.80
2018-09-13T12:50:08.112Z,29.65
2018-09-13T12:51:12.459Z,24.32
2018-09-13T12:52:17.025Z,27.73
2018-09-13T12:53:21.631Z,28.83
2018-09-13T12:54:26.421Z,32.88
2018-09-13T12:55:36.075Z,31.37
2018-09-13T12:56:40.574Z,28.23
2018-09-13T12:57:45.078Z,29.35
2018-09-13T12:58:49.292Z,27.62
2018-09-13T12:59:53.548Z,35.17
2018-09-13T13:01:01.348Z,26.07
2018-09-13T13:02:05.553Z,24.92
2018-09-13T13:03:09.766Z,25.55
2018-09-13T13:04:14.301Z,25.97
2018-09-13T13:05:18.476Z,25.75
2018-09-13T13:06:22.723Z,30.27
2018-09-13T13:07:26.950Z,27.48
2018-09-13T13:08:31.661Z,27.73
2018-09-13T13:09:35.847Z,27.45
2018-09-13T13:10:40.714Z,24.20
2018-09-13T13:11:45.171Z,23.27
2018-09-13T13:12:49.479Z,22.45
2018-09-13T13:13:53.676Z,30.10
2018-09-13T13:14:58.435Z,26.15
2018-09-13T13:16:03.827Z,24.12
2018-09-13T13:17:08.089Z,25.37
2018-09-13T13:18:12.384Z,27.05
2018-09-13T13:19:23.967Z,22.17
2018-09-13T13:20:28.292Z,32.48
2018-09-13T13:21:32.478Z,22.13
2018-09-13T13:22:36.633Z,23.87
2018-09-13T13:23:40.789Z,21.12
2018-09-13T13:24:45.032Z,23.70
2018-09-13T13:25:49.247Z,18.90
2018-09-13T13:26:53.409Z,21.42
2018-09-13T13:27:57.557Z,21.55
2018-09-13T13:29:01.863Z,18.55
2018-09-13T13:30:06.381Z,20.10
2018-09-13T13:31:10.583Z,19.17
2018-09-13T13:32:14.960Z,21.50
2018-09-13T13:33:19.157Z,23.10
2018-09-13T13:34:23.299Z,21.73
2018-09-13T13:35:27.750Z,22.22
2018-09-13T13:36:32.012Z,20.05
2018-09-13T13:37:40.522Z,25.08
2018-09-13T13:38:47.877Z,20.23
2018-09-13T13:39:53.335Z,21.02
2018-09-13T13:40:58.644Z,20.45
2018-09-13T13:42:03.842Z,21.73
2018-09-13T13:43:07.964Z,28.73
2018-09-13T13:44:15.626Z,22.15
2018-09-13T13:45:20.061Z,20.75
2018-09-13T13:46:24.408Z,18.23
2018-09-13T13:47:29.255Z,20.40
2018-09-13T13:48:34.099Z,21.25
2018-09-13T13:49:39.265Z,17.60
2018-09-13T13:50:43.467Z,16.25
2018-09-13T13:51:47.675Z,18.02
2018-09-13T13:52:52.781Z,17.55
2018-09-13T13:53:56.912Z,17.05
2018-09-13T13:55:01.179Z,17.10
2018-09-13T13:56:05.441Z,20.30
2018-09-13T13:57:09.687Z,20.80
2018-09-13T13:58:14.079Z,19.05
2018-09-13T13:59:18.726Z,20.17
2018-09-13T14:00:22.995Z,19.55
2018-09-13T14:01:27.188Z,16.90
2018-09-13T14:02:31.477Z,16.85
2018-09-13T14:03:35.667Z,16.80
2018-09-13T14:04:39.810Z,16.30
2018-09-13T14:05:44.408Z,19.67
2018-09-13T14:06:52.684Z,18.23
2018-09-13T14:07:58.682Z,17.95
2018-09-13T14:09:04.700Z,17.10
2018-09-13T14:10:09.422Z,16.25
2018-09-13T14:11:13.951Z,18.82
2018-09-13T14:12:21.274Z,15.10
2018-09-13T14:13:25.909Z,21.80
2018-09-13T14:14:30.182Z,18.73
2018-09-13T14:15:34.326Z,14.50
2018-09-13T14:16:38.984Z,15.23
2018-09-13T14:17:43.432Z,16.37
2018-09-13T14:18:47.579Z,15.85
2018-09-13T14:19:51.727Z,15.85
2018-09-13T14:20:56.044Z,17.32
2018-09-13T14:22:00.184Z,15.15
2018-09-13T14:23:04.414Z,17.52
2018-09-13T14:24:08.610Z,20.35
2018-09-13T14:25:13.106Z,17.05
2018-09-13T14:26:17.337Z,19.20
2018-09-13T14:27:21.905Z,17.77
2018-09-13T14:28:26.113Z,17.42
2018-09-13T14:29:30.718Z,18.73
2018-09-13T14:30:37.476Z,19.60
2018-09-13T14:31:43.095Z,15.58
2018-09-13T14:32:49.806Z,16.27
2018-09-13T14:33:54.584Z,22.02
2018-09-13T14:34:59.358Z,16.93
2018-09-13T14:36:04.358Z,18.67
2018-09-13T14:37:08.778Z,17.30
2018-09-13T14:38:12.949Z,22.80
2018-09-13T14:39:17.953Z,14.30
2018-09-13T14:40:22.397Z,19.55
2018-09-13T14:41:27.234Z,21.45
2018-09-13T14:44:02.010Z,21.80
2018-09-13T14:45:06.590Z,16.95
2018-09-13T14:46:12.432Z,16.87
2018-09-13T14:47:17.175Z,17.85
2018-09-13T14:48:21.806Z,19.65
2018-09-13T14:49:26.527Z,18.17
2018-09-13T14:50:31.100Z,17.30
2018-09-13T14:51:35.380Z,18.52
2018-09-13T14:52:39.826Z,15.95
2018-09-13T14:53:44.364Z,17.20
2018-09-13T14:54:50.031Z,17.98
2018-09-13T14:55:54.618Z,18.65
2018-09-13T14:56:58.876Z,19.27
2018-09-13T14:58:03.087Z,17.30
2018-09-13T14:59:07.400Z,18.80
2018-09-13T15:00:11.545Z,16.70
2018-09-13T15:01:15.803Z,17.67
2018-09-13T15:02:20.305Z,18.17
2018-09-13T15:03:25.525Z,17.27
2018-09-13T15:04:29.882Z,20.70
2018-09-13T15:05:34.353Z,17.92
2018-09-13T15:06:38.571Z,19.40
2018-09-13T15:07:43.276Z,19.00
2018-09-13T15:08:50.600Z,18.45
2018-09-13T15:09:55.853Z,16.80
2018-09-13T15:11:00.084Z,18.85
2018-09-13T15:12:04.488Z,14.90
2018-09-13T15:13:08.672Z,18.52
2018-09-13T15:14:13.382Z,18.23
2018-09-13T15:15:19.131Z,15.58
2018-09-13T15:16:25.382Z,14.47
2018-09-13T15:17:30.017Z,15.55
2018-09-13T15:18:35.111Z,14.78
2018-09-13T15:19:41.414Z,14.45
2018-09-13T15:20:46.254Z,14.98
2018-09-13T15:21:50.591Z,14.03
2018-09-13T15:22:55.292Z,14.20
2018-09-13T15:24:00.503Z,13.60
2018-09-13T15:25:09.564Z,12.03
2018-09-13T15:26:21.534Z,18.02
2018-09-13T15:27:26.927Z,18.45
2018-09-13T15:28:38.866Z,16.02
2018-09-13T15:29:45.546Z,18.65
2018-09-13T15:30:51.641Z,17.77
2018-09-13T15:31:57.308Z,20.40
2018-09-13T15:33:01.537Z,16.62
2018-09-13T15:34:05.831Z,20.25
2018-09-13T15:35:10.566Z,18.45
2018-09-13T15:36:15.019Z,15.72
2018-09-13T15:37:19.714Z,18.80
2018-09-13T15:38:26.224Z,20.90
2018-09-13T15:39:30.835Z,17.67
2018-09-13T15:40:36.429Z,14.93
2018-09-13T15:41:44.227Z,16.20
2018-09-13T15:42:52.226Z,20.88
2018-09-13T15:43:56.843Z,17.05
2018-09-13T15:45:01.142Z,17.00
2018-09-13T15:46:05.621Z,19.48
2018-09-13T15:47:10.323Z,14.50
2018-09-13T15:48:14.930Z,18.30
2018-09-13T15:49:21.999Z,18.25
2018-09-13T15:50:40.209Z,14.80
2018-09-13T15:51:45.150Z,15.70
2018-09-13T15:52:50.191Z,14.20
2018-09-13T15:53:56.216Z,19.50
2018-09-13T15:55:01.164Z,17.15
2018-09-13T15:56:05.555Z,16.55
2018-09-13T15:57:13.669Z,15.85
2018-09-13T15:58:20.066Z,13.90
2018-09-13T15:59:25.991Z,23.07
2018-09-13T16:00:33.174Z,17.50
2018-09-13T16:01:40.445Z,15.75
2018-09-13T16:02:45.719Z,21.27
2018-09-13T16:03:52.765Z,24.45
2018-09-13T16:04:59.425Z,16.25
2018-09-13T16:06:18.272Z,14.55
2018-09-13T16:07:24.023Z,18.92
2018-09-13T16:08:29.418Z,17.62
2018-09-13T16:09:33.564Z,15.45
2018-09-13T16:10:37.899Z,18.23
2018-09-13T16:11:42.308Z,14.58
2018-09-13T16:12:46.616Z,16.48
2018-09-13T16:13:52.648Z,13.30
2018-09-13T16:15:01.466Z,13.15
2018-09-13T16:16:06.091Z,16.75
2018-09-13T16:17:17.174Z,13.00
2018-09-13T16:18:22.127Z,15.75
2018-09-13T16:19:26.522Z,13.53
2018-09-13T16:20:30.779Z,18.27
2018-09-13T16:21:34.888Z,18.80
2018-09-13T16:22:39.207Z,17.92
2018-09-13T16:23:43.339Z,19.48
2018-09-13T16:24:47.559Z,19.75
2018-09-13T16:26:01.170Z,17.00
2018-09-13T16:27:05.635Z,15.05
2018-09-13T16:28:09.919Z,19.95
2018-09-13T16:29:14.120Z,15.60
2018-09-13T16:30:18.249Z,17.80
2018-09-13T16:31:23.140Z,16.95
2018-09-13T16:32:27.349Z,16.73
2018-09-13T16:33:31.731Z,19.45
2018-09-13T16:34:35.978Z,12.65
2018-09-13T16:35:49.847Z,13.78
2018-09-13T16:37:06.394Z,16.17
2018-09-13T16:38:15.755Z,14.58
2018-09-13T16:39:27.327Z,14.95
2018-09-13T16:40:36.747Z,16.90
2018-09-13T16:41:46.144Z,12.75
2018-09-13T16:42:56.757Z,13.85
2018-09-13T16:44:02.736Z,14.78
2018-09-13T16:45:07.366Z,15.95
2018-09-13T16:46:17.152Z,15.18
2018-09-13T16:47:30.942Z,14.23
2018-09-13T16:48:40.864Z,17.17
2018-09-13T16:49:45.184Z,18.10
2018-09-13T16:50:50.615Z,16.77
2018-09-13T16:51:55.917Z,17.20
2018-09-13T16:53:03.282Z,17.23
2018-09-13T16:54:09.782Z,13.62
2018-09-13T16:55:19.943Z,13.98
2018-09-13T16:56:24.766Z,14.13
2018-09-13T16:57:29.076Z,16.17
2018-09-13T16:58:33.568Z,18.37
2018-09-13T16:59:38.076Z,15.45
2018-09-13T17:00:44.789Z,19.62
2018-09-13T17:01:52.121Z,15.88
2018-09-13T17:02:56.519Z,16.23
2018-09-13T17:04:00.720Z,13.20
2018-09-13T17:05:07.439Z,14.98
2018-09-13T17:06:13.439Z,14.80
2018-09-13T17:07:32.161Z,14.98
2018-09-13T17:08:42.866Z,15.68
2018-09-13T17:09:47.046Z,15.95
2018-09-13T17:10:51.356Z,15.53
2018-09-13T17:11:57.804Z,14.98
2018-09-13T17:13:01.993Z,13.83
2018-09-13T17:14:06.333Z,15.35
2018-09-13T17:15:10.595Z,22.42
2018-09-13T17:16:15.034Z,17.73
2018-09-13T17:17:19.596Z,14.45
2018-09-13T17:18:24.265Z,18.00
2018-09-13T17:19:31.100Z,15.48
2018-09-13T17:20:35.656Z,20.37
2018-09-13T17:21:39.786Z,15.15
2018-09-13T17:22:44.126Z,15.72
2018-09-13T17:23:48.561Z,16.07
2018-09-13T17:24:53.461Z,15.65
2018-09-13T17:25:57.723Z,18.55
2018-09-13T17:27:01.981Z,18.70
2018-09-13T17:28:06.156Z,18.67
2018-09-13T17:29:10.571Z,19.17
2018-09-13T17:30:15.243Z,17.17
2018-09-13T17:31:19.705Z,17.15
2018-09-13T17:32:24.167Z,19.00
2018-09-13T17:33:28.365Z,15.00
2018-09-13T17:34:32.861Z,14.40
2018-09-13T17:35:37.313Z,24.65
2018-09-13T17:36:42.189Z,19.07
2018-09-13T17:37:46.735Z,19.48
2018-09-13T17:38:52.661Z,18.42
2018-09-13T17:39:57.352Z,19.40
2018-09-13T17:41:02.265Z,19.42
2018-09-13T17:42:07.046Z,23.47
2018-09-13T17:43:11.512Z,22.52
2018-09-13T17:44:15.907Z,18.42
2018-09-13T17:45:20.329Z,24.50
2018-09-13T17:46:25.801Z,21.02
2018-09-13T17:47:31.449Z,21.17
2018-09-13T17:48:38.469Z,22.50
2018-09-13T17:49:42.924Z,25.32
2018-09-13T17:50:47.320Z,26.50
2018-09-13T17:51:51.839Z,22.00
2018-09-13T17:52:56.862Z,18.70
2018-09-13T17:54:01.544Z,19.07
2018-09-13T17:55:06.293Z,19.55
2018-09-13T17:56:24.221Z,22.00
2018-09-13T17:57:28.754Z,28.57
2018-09-13T17:58:34.044Z,19.85
2018-09-13T17:59:38.887Z,22.60
2018-09-13T18:00:43.125Z,19.20
2018-09-13T18:01:47.667Z,17.98
2018-09-13T18:02:51.915Z,20.48
2018-09-13T18:03:56.483Z,19.82
2018-09-13T18:05:00.980Z,20.80
2018-09-13T18:06:05.347Z,21.10
2018-09-13T18:07:13.404Z,20.25
2018-09-13T18:08:19.115Z,17.60
2018-09-13T18:09:24.458Z,16.30
2018-09-13T18:10:28.660Z,18.55
2018-09-13T18:11:33.892Z,20.00
2018-09-13T18:12:39.888Z,18.70
2018-09-13T18:13:44.245Z,20.00
2018-09-13T18:14:48.653Z,17.65
2018-09-13T18:15:52.865Z,17.70
2018-09-13T18:16:57.817Z,18.73
2018-09-13T18:18:02.136Z,18.75
2018-09-13T18:19:06.849Z,19.75
2018-09-13T18:20:12.137Z,18.50
2018-09-13T18:21:16.488Z,20.12
2018-09-13T18:22:20.706Z,22.17
2018-09-13T18:23:24.975Z,20.50
2018-09-13T18:24:29.503Z,21.00
2018-09-13T18:25:34.106Z,19.77
2018-09-13T18:26:38.352Z,21.62
2018-09-13T18:27:42.552Z,17.60
2018-09-13T18:28:46.760Z,18.98
2018-09-13T18:29:51.079Z,19.85
2018-09-13T18:30:56.758Z,17.98
2018-09-13T18:32:01.050Z,17.80
2018-09-13T18:33:05.222Z,17.85
2018-09-13T18:34:09.411Z,18.62
2018-09-13T18:35:13.786Z,18.92
2018-09-13T18:36:18.257Z,19.05
2018-09-13T18:37:23.781Z,22.90
2018-09-13T18:38:29.533Z,16.97
2018-09-13T18:39:34.201Z,21.70
2018-09-13T18:40:39.484Z,21.27
2018-09-13T18:41:44.427Z,17.10
2018-09-13T18:42:49.336Z,20.12
2018-09-13T18:43:54.978Z,18.62
2018-09-13T18:45:02.047Z,19.23
2018-09-13T18:46:08.756Z,21.25
2018-09-13T18:47:16.635Z,20.37
2018-09-13T18:48:31.441Z,21.35
2018-09-13T18:49:39.710Z,20.35
2018-09-13T18:50:44.356Z,23.20
2018-09-13T18:51:49.804Z,19.75
2018-09-13T18:53:01.540Z,22.90
2018-09-13T18:54:08.719Z,19.90
2018-09-13T18:55:13.466Z,18.77
2018-09-13T18:56:21.804Z,23.47
2018-09-13T18:57:28.637Z,17.17
2018-09-13T18:58:35.106Z,17.55
2018-09-13T18:59:41.183Z,19.25
2018-09-13T19:00:48.224Z,20.70
2018-09-13T19:02:09.080Z,19.17
2018-09-13T19:03:14.187Z,20.88
2018-09-13T19:04:19.470Z,27.37
2018-09-13T19:05:25.786Z,17.40
2018-09-13T19:06:31.780Z,17.37
2018-09-13T19:07:36.639Z,19.32
2018-09-13T19:08:46.084Z,19.92
2018-09-13T19:09:53.157Z,18.65
2018-09-13T19:12:14.390Z,19.50
2018-09-13T19:13:22.462Z,20.35
2018-09-13T19:14:27.517Z,21.10
2018-09-13T19:16:55.192Z,24.82
2018-09-13T19:18:01.078Z,24.27
2018-09-13T19:19:07.578Z,18.85
2018-09-13T19:20:12.043Z,16.67
2018-09-13T19:21:17.345Z,24.20
2018-09-13T19:22:27.316Z,23.60
2018-09-13T19:23:31.724Z,20.72
2018-09-13T19:24:40.189Z,20.35
2018-09-13T19:25:54.019Z,24.77
2018-09-13T19:27:01.135Z,23.32
2018-09-13T19:28:07.618Z,19.62
2018-09-13T19:29:12.431Z,24.82
2018-09-13T19:30:18.708Z,21.33
2018-09-13T19:31:23.097Z,28.35
2018-09-13T19:32:28.430Z,22.00
2018-09-13T19:33:34.589Z,20.68
2018-09-13T19:34:41.133Z,22.95
2018-09-13T19:37:13.757Z,19.15
2018-09-13T19:38:21.459Z,21.60
2018-09-13T19:39:26.694Z,24.98
2018-09-13T19:40:35.094Z,22.70
2018-09-13T19:41:42.249Z,21.90
2018-09-13T19:42:52.363Z,20.40
2018-09-13T19:43:57.540Z,24.15